Maersk Iowa — KABL — position and weather

sailwx.info

Track history (hours):
 
Tides and Currents Weather Stations Pressure Air Temp Water Temp Dewpoint Dewpoint Depression Visibility Wind Speed Wind Dir Waves Ship Positions

Maersk Iowa

Owner: Maersk Line, Limited, Norfolk, VA. More information available from US FCC via Universal Licensing System and Coast Guard Vessel Documentation Center.

Last reported at 2017-Aug-19 07:45 UTC. Time now 2017-Aug-19 09:34 UTC.
Position N 36°52' W 075°53'.

Length 292 m; draft 11.6 m.

Type: Ship (hazmat cat A). MMSI: 367606000.

Date/timePositionNaut miles runAvg speedWind from/ knotsBaromVisibWave heightAir tempDewpointWater temp
2017-Aug-19 07:45N 36°52' W 075°53'416.9
2017-Aug-19 07:30N 36°55' W 075°56'713.6
2017-Aug-19 07:00N 36°58' W 076°04'1017.3
2017-Aug-19 06:27N 37°00' W 076°16'611.8
2017-Aug-19 05:55N 36°55' W 076°20'3 6.8
2017-Aug-19 05:30N 36°53' W 076°21'0 0.5
2017-Aug-19 05:00N 36°52' W 076°21'0 0.0
2017-Aug-19 04:30N 36°52' W 076°21'0 0.0
2017-Aug-19 03:59N 36°52' W 076°21'0 0.0
2017-Aug-19 03:29N 36°52' W 076°21'0 0.0
2017-Aug-19 02:59N 36°52' W 076°21'0 0.0
2017-Aug-19 02:29N 36°52' W 076°21'0 0.0
2017-Aug-19 01:59N 36°52' W 076°21'0 0.0
2017-Aug-19 01:29N 36°52' W 076°21'0 0.0
2017-Aug-19 00:59N 36°52' W 076°21'0 0.0
2017-Aug-19 00:29N 36°52' W 076°21'0 0.0
2017-Aug-18 17:50N 36°52' W 076°21'0 0.0
2017-Aug-18 17:23N 36°52' W 076°21'0 0.0
2017-Aug-18 16:56N 36°52' W 076°21'0 0.0
2017-Aug-18 09:23N 36°52' W 076°21'0 0.7
2017-Aug-18 09:00N 36°53' W 076°21'3 5.9
2017-Aug-18 08:30N 36°56' W 076°20'510.6
2017-Aug-18 08:00N 37°00' W 076°17'816.2
2017-Aug-18 07:30N 36°59' W 076°07'816.2
2017-Aug-18 07:00N 36°56' W 075°57'5 9.1
2017-Aug-18 06:30N 36°54' W 075°53'711.4
2017-Aug-18 05:56N 36°50' W 075°46'613.0
2017-Aug-18 05:27N 36°46' W 075°40'613.4
2017-Aug-18 05:00N 36°41' W 075°36'713.5
2017-Aug-18 04:30N 36°36' W 075°30'713.6
2017-Aug-18 04:00N 36°31' W 075°25'713.6
2017-Aug-18 03:30N 36°26' W 075°19'713.6
2017-Aug-18 02:58N 36°20' W 075°14'613.4
2017-Aug-18 02:30N 36°15' W 075°09'3212.9
2017-Aug-18 00:00N 35°43' W 075°03'1213.3
2017-Aug-17 23:07N 35°31' W 075°03'113.0
2017-Aug-17 23:00N 35°30' W 075°03'3013.0
2017-Aug-17 20:39N 35°00' W 075°11'314.4
2017-Aug-17 20:26N 34°58' W 075°14'614.2
2017-Aug-17 20:01N 34°53' W 075°18'714.0
2017-Aug-17 19:31N 34°48' W 075°24'714.2
2017-Aug-17 19:00N 34°42' W 075°29'714.3
2017-Aug-17 18:31N 34°36' W 075°34'714.6
2017-Aug-17 18:01N 34°30' W 075°39'3150.7
2017-Aug-17 18:00N 34°30' W 075°36'917.9 360 / 41016.510.8 29.921.530.7
2017-Aug-17 17:30N 34°24' W 075°44'713.0
2017-Aug-17 16:58N 34°19' W 075°49'4 8.6
2017-Aug-17 16:30N 34°16' W 075°52'4 8.6
2017-Aug-17 16:00N 34°12' W 075°55'4 8.8
2017-Aug-17 15:30N 34°08' W 075°58'10 9.4
2017-Aug-17 14:24N 33°60' W 076°05'410.1
2017-Aug-17 14:00N 33°56' W 076°08'510.3
2017-Aug-17 13:30N 33°52' W 076°11'611.1
2017-Aug-17 12:58N 33°47' W 076°15'29115.3
2017-Aug-16 18:00N 29°48' W 079°30'15613.0 270 / 81017.210.8 29.925.730.9
2017-Aug-16 06:00N 27°12' W 079°42'611.8 280 / 121016.710.8 28.524.431.0
2017-Aug-16 05:27N 27°06' W 079°45'614.4
2017-Aug-16 05:00N 26°60' W 079°46'714.3
2017-Aug-16 04:30N 26°53' W 079°47'2113.9
2017-Aug-16 02:59N 26°32' W 079°48'713.8
2017-Aug-16 02:30N 26°25' W 079°49'713.7
2017-Aug-16 02:00N 26°18' W 079°50'713.8
2017-Aug-16 01:30N 26°11' W 079°50'713.9
2017-Aug-16 01:00N 26°04' W 079°51'713.9
2017-Aug-16 00:30N 25°58' W 079°52'714.0
2017-Aug-16 00:00N 25°51' W 079°52'714.0
2017-Aug-15 23:30N 25°44' W 079°53'714.1
2017-Aug-15 23:00N 25°37' W 079°54'713.7
2017-Aug-15 22:31N 25°30' W 079°55'713.5
2017-Aug-15 22:00N 25°24' W 079°58'713.2
2017-Aug-15 21:30N 25°17' W 080°01'713.1
2017-Aug-15 20:59N 25°11' W 080°04'4013.3
2017-Aug-15 18:00N 24°36' W 080°24'37115.4 080 / 61016.310.8 30.323.331.0
2017-Aug-14 18:00N 25°48' W 087°06'9816.4 160 / 51014.810.8 30.521.531.2
2017-Aug-14 12:00N 26°24' W 088°48'10016.7 180 / 91013.810.8 29.023.231.0
2017-Aug-14 06:00N 27°06' W 090°30'10217.1 150 / 101013.410.8 28.424.131.2
2017-Aug-14 00:00N 27°42' W 092°18'10317.2 160 / 61012.710.8 30.024.331.6
2017-Aug-13 18:00N 28°48' W 093°48'7114.4 220 / 131014.210.8 31.325.431.0
2017-Aug-13 13:04N 29°31' W 094°53'112.7
2017-Aug-13 12:59N 29°32' W 094°53'511.2
2017-Aug-13 12:30N 29°36' W 094°57'3 6.0
2017-Aug-13 12:00N 29°37' W 095°00'0 0.2
2017-Aug-13 11:30N 29°37' W 095°00'0 0.0
2017-Aug-13 11:00N 29°37' W 095°00'0 0.0
2017-Aug-13 10:29N 29°37' W 095°00'0 0.0
2017-Aug-13 09:59N 29°37' W 095°00'0 0.0
2017-Aug-13 09:29N 29°37' W 095°00'0 0.0
2017-Aug-13 08:59N 29°37' W 095°00'0 0.0
2017-Aug-13 08:29N 29°37' W 095°00'0 0.0
2017-Aug-13 07:59N 29°37' W 095°00'0 0.0
2017-Aug-13 07:29N 29°37' W 095°00'0 0.0
2017-Aug-13 06:59N 29°37' W 095°00'0 0.0
2017-Aug-13 06:29N 29°37' W 095°00'0 0.0
2017-Aug-13 05:59N 29°37' W 095°00'0 0.0
2017-Aug-13 05:29N 29°37' W 095°00'0 0.0
2017-Aug-13 04:59N 29°37' W 095°00'0 0.0
2017-Aug-13 04:29N 29°37' W 095°00'0 0.0
2017-Aug-13 03:59N 29°37' W 095°00'0 0.0
2017-Aug-13 03:29N 29°37' W 095°00'0 0.0
2017-Aug-13 02:59N 29°37' W 095°00'0 0.0
2017-Aug-13 02:29N 29°37' W 095°00'0 0.0
2017-Aug-13 01:59N 29°37' W 095°00'0 0.0
2017-Aug-13 01:29N 29°37' W 095°00'0 0.0
2017-Aug-13 00:59N 29°37' W 095°00'0 0.0
2017-Aug-13 00:29N 29°37' W 095°00'0 0.0
2017-Aug-12 23:59N 29°37' W 095°00'0 0.0
2017-Aug-12 23:29N 29°37' W 095°00'0 0.0
2017-Aug-12 22:59N 29°37' W 095°00'0 0.0
2017-Aug-12 22:26N 29°37' W 095°00'0 0.1
2017-Aug-12 21:59N 29°37' W 095°00'0 0.0
2017-Aug-12 21:29N 29°37' W 095°00'0 0.0
2017-Aug-12 20:59N 29°37' W 095°00'0 0.0
2017-Aug-12 20:29N 29°37' W 095°00'0 0.0
2017-Aug-12 19:59N 29°37' W 095°00'0 0.0
2017-Aug-12 19:23N 29°37' W 095°00'0 0.0
2017-Aug-12 18:59N 29°37' W 095°00'0 0.0
2017-Aug-12 18:29N 29°37' W 095°00'0 0.0
2017-Aug-12 17:59N 29°37' W 095°00'0 0.0
2017-Aug-12 17:29N 29°37' W 095°00'0 0.1
2017-Aug-12 16:59N 29°37' W 095°00'0 0.0
2017-Aug-12 16:29N 29°37' W 095°00'0 0.0
2017-Aug-12 15:59N 29°37' W 095°00'0 0.0
2017-Aug-12 15:29N 29°37' W 095°00'0 0.0
2017-Aug-12 14:56N 29°37' W 095°00'0 0.0
2017-Aug-12 14:29N 29°37' W 095°00'0 0.0
2017-Aug-12 13:59N 29°37' W 095°00'0 0.0
2017-Aug-12 13:29N 29°37' W 095°00'0 0.0
2017-Aug-12 12:59N 29°37' W 095°00'0 0.0
2017-Aug-12 12:29N 29°37' W 095°00'0 0.0
2017-Aug-12 11:59N 29°37' W 095°00'0 0.0
2017-Aug-12 11:29N 29°37' W 095°00'0 0.9
2017-Aug-12 11:01N 29°37' W 095°01'0 0.9
2017-Aug-12 10:31N 29°37' W 095°00'3 6.2
2017-Aug-12 10:01N 29°36' W 094°57'611.7
2017-Aug-12 09:31N 29°31' W 094°53'612.3
2017-Aug-12 09:01N 29°26' W 094°50'611.3
2017-Aug-12 08:28N 29°21' W 094°46'1212.1
2017-Aug-12 07:27N 29°16' W 094°33'7 5.5
2017-Aug-12 06:14N 29°12' W 094°27'2 8.1
2017-Aug-12 05:56N 29°10' W 094°25'915.5
2017-Aug-12 05:21N 29°01' W 094°24'8515.9
2017-Aug-12 00:00N 28°18' W 093°00'18815.7 200 / 61015.310.8 31.023.931.0
2017-Aug-11 12:00N 26°48' W 089°54'30316.8 090 / 61017.910.8 28.023.731.0
2017-Aug-10 18:00N 24°54' W 084°42'20917.4 030 / 21018.310.8 30.924.230.9
2017-Aug-10 06:00N 24°30' W 080°54'7016.6 140 / 61017.610.8 27.422.930.6
2017-Aug-10 01:46N 25°22' W 080°03'417.0
2017-Aug-10 01:30N 25°26' W 080°03'816.2
2017-Aug-10 01:00N 25°35' W 080°02'815.4
2017-Aug-10 00:30N 25°42' W 080°03'5 9.3
2017-Aug-10 00:00N 25°46' W 080°06'3 6.0
2017-Aug-09 23:30N 25°46' W 080°10'0 0.1
2017-Aug-09 23:00N 25°46' W 080°10'0 0.0
2017-Aug-09 22:30N 25°46' W 080°10'0 0.0
2017-Aug-09 21:58N 25°46' W 080°10'0 0.0
2017-Aug-09 21:28N 25°46' W 080°10'0 0.0
2017-Aug-09 20:58N 25°46' W 080°10'0 0.0
2017-Aug-09 20:28N 25°46' W 080°10'0 0.0
2017-Aug-09 19:58N 25°46' W 080°10'0 0.0
2017-Aug-09 19:28N 25°46' W 080°10'0 0.0
2017-Aug-09 18:55N 25°46' W 080°10'0 0.0
2017-Aug-09 18:25N 25°46' W 080°10'0 0.0
2017-Aug-09 17:58N 25°46' W 080°10'0 0.0
2017-Aug-09 17:25N 25°46' W 080°10'0 0.0
2017-Aug-09 16:58N 25°46' W 080°10'0 0.0
2017-Aug-09 16:22N 25°46' W 080°10'0 0.0
2017-Aug-09 15:58N 25°46' W 080°10'0 0.0
2017-Aug-09 15:22N 25°46' W 080°10'0 0.0
2017-Aug-09 14:58N 25°46' W 080°10'0 0.0
2017-Aug-09 14:25N 25°46' W 080°10'0 0.0
2017-Aug-09 13:58N 25°46' W 080°10'0 0.0
2017-Aug-09 13:28N 25°46' W 080°10'0 0.0
2017-Aug-09 12:55N 25°46' W 080°10'0 0.0
2017-Aug-09 12:28N 25°46' W 080°10'0 0.0
2017-Aug-09 11:55N 25°46' W 080°10'0 0.0
2017-Aug-09 11:28N 25°46' W 080°10'0 0.0
2017-Aug-09 10:58N 25°46' W 080°10'0 0.0
2017-Aug-09 10:28N 25°46' W 080°10'0 0.0
2017-Aug-09 09:58N 25°46' W 080°10'0 0.0
2017-Aug-09 09:28N 25°46' W 080°10'0 0.0
2017-Aug-09 09:00N 25°46' W 080°10'0 0.3
2017-Aug-09 08:30N 25°46' W 080°10'0 0.7
2017-Aug-09 08:00N 25°46' W 080°09'  
Track history (hours):
 
Tides and Currents Weather Stations Pressure Air Temp Water Temp Dewpoint Dewpoint Depression Visibility Wind Speed Wind Dir Waves Ship Positions

Maersk Iowa

Owner: Maersk Line, Limited, Norfolk, VA. More information available from US FCC via Universal Licensing System and Coast Guard Vessel Documentation Center.

Last reported at 2017-Aug-19 07:45 UTC. Time now 2017-Aug-19 09:34 UTC.
Position N 36°52' W 075°53'.

Length 292 m; draft 11.6 m.

Type: Ship (hazmat cat A). MMSI: 367606000.

Date/timePositionNaut miles runAvg speedWind from/ knotsBaromVisibWave heightAir tempDewpointWater temp
2017-Aug-19 07:45N 36°52' W 075°53'416.9
2017-Aug-19 07:30N 36°55' W 075°56'713.6
2017-Aug-19 07:00N 36°58' W 076°04'1017.3
2017-Aug-19 06:27N 37°00' W 076°16'611.8
2017-Aug-19 05:55N 36°55' W 076°20'3 6.8
2017-Aug-19 05:30N 36°53' W 076°21'0 0.5
2017-Aug-19 05:00N 36°52' W 076°21'0 0.0
2017-Aug-19 04:30N 36°52' W 076°21'0 0.0
2017-Aug-19 03:59N 36°52' W 076°21'0 0.0
2017-Aug-19 03:29N 36°52' W 076°21'0 0.0
2017-Aug-19 02:59N 36°52' W 076°21'0 0.0
2017-Aug-19 02:29N 36°52' W 076°21'0 0.0
2017-Aug-19 01:59N 36°52' W 076°21'0 0.0
2017-Aug-19 01:29N 36°52' W 076°21'0 0.0
2017-Aug-19 00:59N 36°52' W 076°21'0 0.0
2017-Aug-19 00:29N 36°52' W 076°21'0 0.0
2017-Aug-18 17:50N 36°52' W 076°21'0 0.0
2017-Aug-18 17:23N 36°52' W 076°21'0 0.0
2017-Aug-18 16:56N 36°52' W 076°21'0 0.0
2017-Aug-18 09:23N 36°52' W 076°21'0 0.7
2017-Aug-18 09:00N 36°53' W 076°21'3 5.9
2017-Aug-18 08:30N 36°56' W 076°20'510.6
2017-Aug-18 08:00N 37°00' W 076°17'816.2
2017-Aug-18 07:30N 36°59' W 076°07'816.2
2017-Aug-18 07:00N 36°56' W 075°57'5 9.1
2017-Aug-18 06:30N 36°54' W 075°53'711.4
2017-Aug-18 05:56N 36°50' W 075°46'613.0
2017-Aug-18 05:27N 36°46' W 075°40'613.4
2017-Aug-18 05:00N 36°41' W 075°36'713.5
2017-Aug-18 04:30N 36°36' W 075°30'713.6
2017-Aug-18 04:00N 36°31' W 075°25'713.6
2017-Aug-18 03:30N 36°26' W 075°19'713.6
2017-Aug-18 02:58N 36°20' W 075°14'613.4
2017-Aug-18 02:30N 36°15' W 075°09'3212.9
2017-Aug-18 00:00N 35°43' W 075°03'1213.3
2017-Aug-17 23:07N 35°31' W 075°03'113.0
2017-Aug-17 23:00N 35°30' W 075°03'3013.0
2017-Aug-17 20:39N 35°00' W 075°11'314.4
2017-Aug-17 20:26N 34°58' W 075°14'614.2
2017-Aug-17 20:01N 34°53' W 075°18'714.0
2017-Aug-17 19:31N 34°48' W 075°24'714.2
2017-Aug-17 19:00N 34°42' W 075°29'714.3
2017-Aug-17 18:31N 34°36' W 075°34'714.6
2017-Aug-17 18:01N 34°30' W 075°39'3150.7
2017-Aug-17 18:00N 34°30' W 075°36'917.9 360 / 41016.510.8 29.921.530.7
2017-Aug-17 17:30N 34°24' W 075°44'713.0
2017-Aug-17 16:58N 34°19' W 075°49'4 8.6
2017-Aug-17 16:30N 34°16' W 075°52'4 8.6
2017-Aug-17 16:00N 34°12' W 075°55'4 8.8
2017-Aug-17 15:30N 34°08' W 075°58'10 9.4
2017-Aug-17 14:24N 33°60' W 076°05'410.1
2017-Aug-17 14:00N 33°56' W 076°08'510.3
2017-Aug-17 13:30N 33°52' W 076°11'611.1
2017-Aug-17 12:58N 33°47' W 076°15'29115.3
2017-Aug-16 18:00N 29°48' W 079°30'15613.0 270 / 81017.210.8 29.925.730.9
2017-Aug-16 06:00N 27°12' W 079°42'611.8 280 / 121016.710.8 28.524.431.0
2017-Aug-16 05:27N 27°06' W 079°45'614.4
2017-Aug-16 05:00N 26°60' W 079°46'714.3
2017-Aug-16 04:30N 26°53' W 079°47'2113.9
2017-Aug-16 02:59N 26°32' W 079°48'713.8
2017-Aug-16 02:30N 26°25' W 079°49'713.7
2017-Aug-16 02:00N 26°18' W 079°50'713.8
2017-Aug-16 01:30N 26°11' W 079°50'713.9
2017-Aug-16 01:00N 26°04' W 079°51'713.9
2017-Aug-16 00:30N 25°58' W 079°52'714.0
2017-Aug-16 00:00N 25°51' W 079°52'714.0
2017-Aug-15 23:30N 25°44' W 079°53'714.1
2017-Aug-15 23:00N 25°37' W 079°54'713.7
2017-Aug-15 22:31N 25°30' W 079°55'713.5
2017-Aug-15 22:00N 25°24' W 079°58'713.2
2017-Aug-15 21:30N 25°17' W 080°01'713.1
2017-Aug-15 20:59N 25°11' W 080°04'4013.3
2017-Aug-15 18:00N 24°36' W 080°24'37115.4 080 / 61016.310.8 30.323.331.0
2017-Aug-14 18:00N 25°48' W 087°06'9816.4 160 / 51014.810.8 30.521.531.2
2017-Aug-14 12:00N 26°24' W 088°48'10016.7 180 / 91013.810.8 29.023.231.0
2017-Aug-14 06:00N 27°06' W 090°30'10217.1 150 / 101013.410.8 28.424.131.2
2017-Aug-14 00:00N 27°42' W 092°18'10317.2 160 / 61012.710.8 30.024.331.6
2017-Aug-13 18:00N 28°48' W 093°48'7114.4 220 / 131014.210.8 31.325.431.0
2017-Aug-13 13:04N 29°31' W 094°53'112.7
2017-Aug-13 12:59N 29°32' W 094°53'511.2
2017-Aug-13 12:30N 29°36' W 094°57'3 6.0
2017-Aug-13 12:00N 29°37' W 095°00'0 0.2
2017-Aug-13 11:30N 29°37' W 095°00'0 0.0
2017-Aug-13 11:00N 29°37' W 095°00'0 0.0
2017-Aug-13 10:29N 29°37' W 095°00'0 0.0
2017-Aug-13 09:59N 29°37' W 095°00'0 0.0
2017-Aug-13 09:29N 29°37' W 095°00'0 0.0
2017-Aug-13 08:59N 29°37' W 095°00'0 0.0
2017-Aug-13 08:29N 29°37' W 095°00'0 0.0
2017-Aug-13 07:59N 29°37' W 095°00'0 0.0
2017-Aug-13 07:29N 29°37' W 095°00'0 0.0
2017-Aug-13 06:59N 29°37' W 095°00'0 0.0
2017-Aug-13 06:29N 29°37' W 095°00'0 0.0
2017-Aug-13 05:59N 29°37' W 095°00'0 0.0
2017-Aug-13 05:29N 29°37' W 095°00'0 0.0
2017-Aug-13 04:59N 29°37' W 095°00'0 0.0
2017-Aug-13 04:29N 29°37' W 095°00'0 0.0
2017-Aug-13 03:59N 29°37' W 095°00'0 0.0
2017-Aug-13 03:29N 29°37' W 095°00'0 0.0
2017-Aug-13 02:59N 29°37' W 095°00'0 0.0
2017-Aug-13 02:29N 29°37' W 095°00'0 0.0
2017-Aug-13 01:59N 29°37' W 095°00'0 0.0
2017-Aug-13 01:29N 29°37' W 095°00'0 0.0
2017-Aug-13 00:59N 29°37' W 095°00'0 0.0
2017-Aug-13 00:29N 29°37' W 095°00'0 0.0
2017-Aug-12 23:59N 29°37' W 095°00'0 0.0
2017-Aug-12 23:29N 29°37' W 095°00'0 0.0
2017-Aug-12 22:59N 29°37' W 095°00'0 0.0
2017-Aug-12 22:26N 29°37' W 095°00'0 0.1
2017-Aug-12 21:59N 29°37' W 095°00'0 0.0
2017-Aug-12 21:29N 29°37' W 095°00'0 0.0
2017-Aug-12 20:59N 29°37' W 095°00'0 0.0
2017-Aug-12 20:29N 29°37' W 095°00'0 0.0
2017-Aug-12 19:59N 29°37' W 095°00'0 0.0
2017-Aug-12 19:23N 29°37' W 095°00'0 0.0
2017-Aug-12 18:59N 29°37' W 095°00'0 0.0
2017-Aug-12 18:29N 29°37' W 095°00'0 0.0
2017-Aug-12 17:59N 29°37' W 095°00'0 0.0
2017-Aug-12 17:29N 29°37' W 095°00'0 0.1
2017-Aug-12 16:59N 29°37' W 095°00'0 0.0
2017-Aug-12 16:29N 29°37' W 095°00'0 0.0
2017-Aug-12 15:59N 29°37' W 095°00'0 0.0
2017-Aug-12 15:29N 29°37' W 095°00'0 0.0
2017-Aug-12 14:56N 29°37' W 095°00'0 0.0
2017-Aug-12 14:29N 29°37' W 095°00'0 0.0
2017-Aug-12 13:59N 29°37' W 095°00'0 0.0
2017-Aug-12 13:29N 29°37' W 095°00'0 0.0
2017-Aug-12 12:59N 29°37' W 095°00'0 0.0
2017-Aug-12 12:29N 29°37' W 095°00'0 0.0
2017-Aug-12 11:59N 29°37' W 095°00'0 0.0
2017-Aug-12 11:29N 29°37' W 095°00'0 0.9
2017-Aug-12 11:01N 29°37' W 095°01'0 0.9
2017-Aug-12 10:31N 29°37' W 095°00'3 6.2
2017-Aug-12 10:01N 29°36' W 094°57'611.7
2017-Aug-12 09:31N 29°31' W 094°53'612.3
2017-Aug-12 09:01N 29°26' W 094°50'611.3
2017-Aug-12 08:28N 29°21' W 094°46'1212.1
2017-Aug-12 07:27N 29°16' W 094°33'7 5.5
2017-Aug-12 06:14N 29°12' W 094°27'2 8.1
2017-Aug-12 05:56N 29°10' W 094°25'915.5
2017-Aug-12 05:21N 29°01' W 094°24'8515.9
2017-Aug-12 00:00N 28°18' W 093°00'18815.7 200 / 61015.310.8 31.023.931.0
2017-Aug-11 12:00N 26°48' W 089°54'30316.8 090 / 61017.910.8 28.023.731.0
2017-Aug-10 18:00N 24°54' W 084°42'20917.4 030 / 21018.310.8 30.924.230.9
2017-Aug-10 06:00N 24°30' W 080°54'7016.6 140 / 61017.610.8 27.422.930.6
2017-Aug-10 01:46N 25°22' W 080°03'417.0
2017-Aug-10 01:30N 25°26' W 080°03'816.2
2017-Aug-10 01:00N 25°35' W 080°02'815.4
2017-Aug-10 00:30N 25°42' W 080°03'5 9.3
2017-Aug-10 00:00N 25°46' W 080°06'3 6.0
2017-Aug-09 23:30N 25°46' W 080°10'0 0.1
2017-Aug-09 23:00N 25°46' W 080°10'0 0.0
2017-Aug-09 22:30N 25°46' W 080°10'0 0.0
2017-Aug-09 21:58N 25°46' W 080°10'0 0.0
2017-Aug-09 21:28N 25°46' W 080°10'0 0.0
2017-Aug-09 20:58N 25°46' W 080°10'0 0.0
2017-Aug-09 20:28N 25°46' W 080°10'0 0.0
2017-Aug-09 19:58N 25°46' W 080°10'0 0.0
2017-Aug-09 19:28N 25°46' W 080°10'0 0.0
2017-Aug-09 18:55N 25°46' W 080°10'0 0.0
2017-Aug-09 18:25N 25°46' W 080°10'0 0.0
2017-Aug-09 17:58N 25°46' W 080°10'0 0.0
2017-Aug-09 17:25N 25°46' W 080°10'0 0.0
2017-Aug-09 16:58N 25°46' W 080°10'0 0.0
2017-Aug-09 16:22N 25°46' W 080°10'0 0.0
2017-Aug-09 15:58N 25°46' W 080°10'0 0.0
2017-Aug-09 15:22N 25°46' W 080°10'0 0.0
2017-Aug-09 14:58N 25°46' W 080°10'0 0.0
2017-Aug-09 14:25N 25°46' W 080°10'0 0.0
2017-Aug-09 13:58N 25°46' W 080°10'0 0.0
2017-Aug-09 13:28N 25°46' W 080°10'0 0.0
2017-Aug-09 12:55N 25°46' W 080°10'0 0.0
2017-Aug-09 12:28N 25°46' W 080°10'0 0.0
2017-Aug-09 11:55N 25°46' W 080°10'0 0.0
2017-Aug-09 11:28N 25°46' W 080°10'0 0.0
2017-Aug-09 10:58N 25°46' W 080°10'0 0.0
2017-Aug-09 10:28N 25°46' W 080°10'0 0.0
2017-Aug-09 09:58N 25°46' W 080°10'0 0.0
2017-Aug-09 09:28N 25°46' W 080°10'0 0.0
2017-Aug-09 09:00N 25°46' W 080°10'0 0.3
2017-Aug-09 08:30N 25°46' W 080°10'0 0.7
2017-Aug-09 08:00N 25°46' W 080°09'  

Dump ship's entire track history